Flight Briefing for CPX103

Departure Arrival
Ted Stevens Anchorage International Airport (PANC)
Click to view FAA NOTAMS
Huntsville International Airport (KHSV)
Click to view FAA NOTAMS
Departure Time Arrival Time
N/A N/A
Aircraft Distance
MD-11SF 2850nm
Departure METAR Arrival METAR
PANC 180616Z 17009G15KT 10SM FEW012 SCT022 OVC030 03/M01 A2984 RMK AO2 VIRGA ALQDS T00281011 KHSV 180614Z AUTO 31008KT 10SM -RA OVC010 07/06 A3003 RMK AO2 CIG 007V012 PRESRR P0002 T00720056
Suggested Route
TED YESKA NCA13 YXY J515 YYE J537 YPE J601 XD YWV J475 VLN J483 MOT ABR Q19 DSM J45 IRK FAM J151 VUZ


View recent IFR Routes data
Notes



Charts and Procedures

Charts for PANC
No chart available
Charts for KHSV
No chart available

Ventusky Weather